Time;durP1;ratioP1;P1;durP2;ratioP2;P2;SDS_P1;SDS_P2;PMS_P1;PMS_P2;Temp;Humidity;BMP_temperature;BMP_pressure;BME280_temperature;BME280_humidity;BME280_pressure;Samples;Min_cycle;Max_cycle;Signal;HPM_P1;HPM_P2
2023/09/13 00:01:16;;;;;;;;;;;20.70;99.90;;;;;;8371428;28;19924;-70
2023/09/13 00:05:18;;;;;;;;;;;20.70;99.90;;;;;;8377296;28;19924;-70
2023/09/13 00:09:19;;;;;;;;;;;20.70;99.90;;;;;;8377209;28;20010;-69
2023/09/13 00:13:21;;;;;;;;;;;20.60;99.90;;;;;;8378238;28;20375;-70
2023/09/13 00:17:23;;;;;;;;;;;20.50;99.90;;;;;;8374909;28;19948;-69
2023/09/13 00:21:25;;;;;;;;;;;20.50;99.90;;;;;;8370197;28;19933;-69
2023/09/13 00:25:26;;;;;;;;;;;20.50;99.90;;;;;;8370307;28;19925;-69
2023/09/13 00:29:31;;;;;;;;;;;20.60;99.90;;;;;;8373044;28;19924;-70
2023/09/13 00:33:33;;;;;;;;;;;20.60;99.90;;;;;;8370699;28;19924;-69
2023/09/13 00:37:34;;;;;;;;;;;20.60;99.90;;;;;;8360925;28;19936;-69
2023/09/13 00:41:36;;;;;;;;;;;20.60;99.90;;;;;;8375061;28;19924;-69
2023/09/13 00:45:38;;;;;;;;;;;20.60;99.90;;;;;;8375016;28;19932;-69
2023/09/13 00:49:40;;;;;;;;;;;20.50;99.90;;;;;;8369789;28;19929;-69
2023/09/13 00:53:42;;;;;;;;;;;20.50;99.90;;;;;;8373232;28;20338;-69
2023/09/13 00:57:44;;;;;;;;;;;20.50;99.90;;;;;;8365776;28;19925;-69
2023/09/13 01:01:46;;;;;;;;;;;20.50;99.90;;;;;;8376036;28;19978;-69
2023/09/13 01:05:49;;;;;;;;;;;20.40;99.90;;;;;;8374298;28;20446;-70
2023/09/13 01:09:51;;;;;;;;;;;20.40;99.90;;;;;;8369011;28;19931;-69
2023/09/13 01:13:53;;;;;;;;;;;20.40;99.90;;;;;;8373290;28;19932;-69
2023/09/13 01:18:03;;;;;;;;;;;20.40;99.90;;;;;;8366261;28;19928;-70
2023/09/13 01:22:14;;;;;;;;;;;20.40;99.90;;;;;;8373991;28;19954;-69
2023/09/13 01:26:30;;;;;;;;;;;20.40;99.90;;;;;;8365145;28;19924;-69
2023/09/13 01:30:32;;;;;;;;;;;20.40;99.90;;;;;;8370728;28;19931;-69
2023/09/13 01:34:34;;;;;;;;;;;20.40;99.90;;;;;;8375901;28;19958;-69
2023/09/13 01:38:36;;;;;;;;;;;20.40;99.90;;;;;;8365622;28;19932;-70
2023/09/13 01:42:38;;;;;;;;;;;20.40;99.90;;;;;;8377977;28;19932;-69
2023/09/13 01:46:42;;;;;;;;;;;20.30;99.90;;;;;;8375804;28;19924;-69
2023/09/13 01:50:44;;;;;;;;;;;20.30;99.90;;;;;;8379611;28;20311;-69
2023/09/13 01:54:45;;;;;;;;;;;20.30;99.90;;;;;;8370009;28;19935;-70
2023/09/13 01:58:48;;;;;;;;;;;20.20;99.90;;;;;;8380925;28;19929;-69
2023/09/13 02:02:50;;;;;;;;;;;20.20;99.90;;;;;;8374965;28;19935;-69
2023/09/13 02:06:51;;;;;;;;;;;20.20;99.90;;;;;;8366610;28;19924;-69
2023/09/13 02:10:53;;;;;;;;;;;20.10;99.90;;;;;;8371291;28;19932;-70
2023/09/13 02:14:55;;;;;;;;;;;20.10;99.90;;;;;;8376503;28;20301;-69
2023/09/13 02:18:57;;;;;;;;;;;20.10;99.90;;;;;;8349610;28;19925;-70
2023/09/13 02:22:59;;;;;;;;;;;20.10;99.90;;;;;;8368445;28;20117;-69
2023/09/13 02:27:00;;;;;;;;;;;20.10;99.90;;;;;;8375758;28;19932;-69
2023/09/13 02:31:02;;;;;;;;;;;20.10;99.90;;;;;;8382751;28;19936;-70
2023/09/13 02:35:05;;;;;;;;;;;20.00;99.90;;;;;;8370291;28;20368;-70
2023/09/13 02:39:26;;;;;;;;;;;20.00;99.90;;;;;;8379081;28;19928;-70
2023/09/13 02:43:28;;;;;;;;;;;20.00;99.90;;;;;;8379604;28;19928;-70
2023/09/13 02:47:29;;;;;;;;;;;20.00;99.90;;;;;;8368878;28;19928;-70
2023/09/13 02:51:32;;;;;;;;;;;20.00;99.90;;;;;;8389035;28;19924;-70
2023/09/13 02:55:33;;;;;;;;;;;20.10;99.90;;;;;;8377090;28;19924;-70
2023/09/13 02:59:37;;;;;;;;;;;20.10;99.90;;;;;;8380982;28;19932;-70
2023/09/13 03:03:38;;;;;;;;;;;20.10;99.90;;;;;;8364533;28;20399;-70
2023/09/13 03:07:40;;;;;;;;;;;20.00;99.90;;;;;;8371100;28;19925;-70
2023/09/13 03:11:42;;;;;;;;;;;20.00;99.90;;;;;;8374948;28;20391;-70
2023/09/13 03:15:44;;;;;;;;;;;20.00;99.90;;;;;;8379482;28;19947;-70
2023/09/13 03:19:45;;;;;;;;;;;20.00;99.90;;;;;;8375712;28;19982;-70
2023/09/13 03:23:48;;;;;;;;;;;20.00;99.90;;;;;;8380271;28;19937;-70
2023/09/13 03:27:50;;;;;;;;;;;20.00;99.90;;;;;;8369472;28;19924;-70
2023/09/13 03:31:52;;;;;;;;;;;19.90;99.90;;;;;;8370055;28;19928;-70
2023/09/13 03:35:54;;;;;;;;;;;19.90;99.90;;;;;;8364158;28;20299;-70
2023/09/13 03:39:55;;;;;;;;;;;19.90;99.90;;;;;;8372139;28;19925;-70
2023/09/13 03:43:57;;;;;;;;;;;19.90;99.90;;;;;;8376209;28;19928;-70
2023/09/13 03:47:59;;;;;;;;;;;19.90;99.90;;;;;;8382740;28;19924;-70
2023/09/13 03:52:01;;;;;;;;;;;19.90;99.90;;;;;;8375832;28;19932;-70
2023/09/13 03:56:03;;;;;;;;;;;19.90;99.90;;;;;;8380036;28;19932;-70
2023/09/13 04:00:12;;;;;;;;;;;19.80;99.90;;;;;;8370722;28;19925;-70
2023/09/13 04:04:14;;;;;;;;;;;19.70;99.90;;;;;;8372434;28;19936;-70
2023/09/13 04:08:16;;;;;;;;;;;19.70;99.90;;;;;;8378841;28;19925;-70
2023/09/13 04:12:17;;;;;;;;;;;19.70;99.90;;;;;;8382708;28;19932;-70
2023/09/13 04:16:19;;;;;;;;;;;19.60;99.90;;;;;;8376178;28;20299;-70
2023/09/13 04:20:22;;;;;;;;;;;19.60;99.90;;;;;;8368054;28;19924;-70
2023/09/13 04:24:23;;;;;;;;;;;19.60;99.90;;;;;;8366216;28;19925;-70
2023/09/13 04:28:25;;;;;;;;;;;19.60;99.90;;;;;;8369370;28;19985;-70
2023/09/13 04:32:27;;;;;;;;;;;19.50;99.90;;;;;;8371013;28;20793;-70
2023/09/13 04:36:28;;;;;;;;;;;19.50;99.90;;;;;;8372232;28;19924;-70
2023/09/13 04:40:30;;;;;;;;;;;19.50;99.90;;;;;;8378108;28;19928;-70
2023/09/13 04:44:32;;;;;;;;;;;19.50;99.90;;;;;;8373772;28;20264;-70
2023/09/13 04:48:34;;;;;;;;;;;19.50;99.90;;;;;;8361428;28;19982;-70
2023/09/13 04:52:36;;;;;;;;;;;19.50;99.90;;;;;;8378580;28;20399;-70
2023/09/13 04:56:38;;;;;;;;;;;19.50;99.90;;;;;;8374623;28;19925;-70
2023/09/13 05:00:39;;;;;;;;;;;19.40;99.90;;;;;;8373503;28;19939;-70
2023/09/13 05:04:41;;;;;;;;;;;19.40;99.90;;;;;;8377412;28;19935;-70
2023/09/13 05:08:43;;;;;;;;;;;19.30;99.90;;;;;;8370406;28;19940;-70
2023/09/13 05:12:47;;;;;;;;;;;19.30;99.90;;;;;;8368361;28;20264;-70
2023/09/13 05:16:48;;;;;;;;;;;19.30;99.90;;;;;;8370197;28;19968;-70
2023/09/13 05:20:50;;;;;;;;;;;19.30;99.90;;;;;;8374631;28;19925;-70
2023/09/13 05:24:52;;;;;;;;;;;19.20;99.90;;;;;;8365701;28;19924;-71
2023/09/13 05:28:53;;;;;;;;;;;19.30;99.90;;;;;;8384671;28;19969;-70
2023/09/13 05:32:55;;;;;;;;;;;19.30;99.90;;;;;;8378220;28;20349;-70
2023/09/13 05:36:57;;;;;;;;;;;19.30;99.90;;;;;;8379192;28;20065;-70
2023/09/13 05:41:04;;;;;;;;;;;19.30;99.90;;;;;;8363330;28;20439;-70
2023/09/13 05:45:06;;;;;;;;;;;19.30;99.90;;;;;;8373222;28;20395;-70
2023/09/13 05:49:07;;;;;;;;;;;19.30;99.90;;;;;;8375894;28;19979;-70
2023/09/13 05:53:09;;;;;;;;;;;19.30;99.90;;;;;;8366281;28;19925;-70
2023/09/13 05:57:11;;;;;;;;;;;19.30;99.90;;;;;;8375889;28;19982;-70
2023/09/13 06:01:13;;;;;;;;;;;19.30;99.90;;;;;;8366532;28;19925;-69
2023/09/13 06:05:14;;;;;;;;;;;19.30;99.90;;;;;;8374943;28;19967;-69
2023/09/13 06:09:21;;;;;;;;;;;19.30;99.90;;;;;;8376749;28;20004;-70
2023/09/13 06:13:24;;;;;;;;;;;19.20;99.90;;;;;;8372495;28;19948;-70
2023/09/13 06:17:26;;;;;;;;;;;19.10;99.90;;;;;;8365782;28;19925;-69
2023/09/13 06:21:27;;;;;;;;;;;18.90;99.90;;;;;;8370782;28;19931;-70
2023/09/13 06:25:29;;;;;;;;;;;18.70;99.90;;;;;;8372252;28;20422;-69
2023/09/13 06:29:31;;;;;;;;;;;18.50;99.90;;;;;;8369845;28;19924;-69
2023/09/13 06:33:32;;;;;;;;;;;18.40;99.90;;;;;;8369237;28;19925;-70
2023/09/13 06:37:43;;;;;;;;;;;18.30;99.90;;;;;;8374386;28;20405;-69
2023/09/13 06:41:45;;;;;;;;;;;18.20;99.90;;;;;;8367061;28;19925;-70
2023/09/13 06:45:47;;;;;;;;;;;18.10;99.90;;;;;;8367006;28;19932;-69
2023/09/13 06:50:04;;;;;;;;;;;18.00;99.90;;;;;;8375894;28;19925;-70
2023/09/13 06:54:06;;;;;;;;;;;17.90;99.90;;;;;;8382943;28;19932;-70
2023/09/13 06:58:10;;;;;;;;;;;17.90;99.90;;;;;;8373029;28;19924;-69
2023/09/13 07:02:14;;;;;;;;;;;17.80;99.90;;;;;;8379981;28;19982;-69
2023/09/13 07:06:32;;;;;;;;;;;17.80;99.90;;;;;;8371960;28;20011;-69
2023/09/13 07:10:34;;;;;;;;;;;17.70;99.90;;;;;;8371675;28;20288;-69
2023/09/13 07:14:36;;;;;;;;;;;17.70;99.90;;;;;;8377029;28;19925;-69
2023/09/13 07:18:37;;;;;;;;;;;17.60;99.90;;;;;;8368782;28;20363;-69
2023/09/13 07:22:39;;;;;;;;;;;17.60;99.90;;;;;;8379682;28;19934;-69
2023/09/13 07:26:41;;;;;;;;;;;17.60;99.90;;;;;;8381322;28;20346;-69
2023/09/13 07:30:43;;;;;;;;;;;17.60;99.90;;;;;;8379273;28;19924;-69
2023/09/13 07:34:45;;;;;;;;;;;17.60;99.90;;;;;;8373252;28;19959;-70
2023/09/13 07:38:46;;;;;;;;;;;17.50;99.90;;;;;;8370053;28;19933;-70
2023/09/13 07:42:48;;;;;;;;;;;17.50;99.90;;;;;;8378124;28;19925;-70
2023/09/13 07:46:50;;;;;;;;;;;17.60;99.90;;;;;;8371476;28;19925;-70
2023/09/13 07:50:51;;;;;;;;;;;17.60;99.90;;;;;;8373663;28;19925;-69
2023/09/13 07:54:53;;;;;;;;;;;17.70;99.90;;;;;;8365080;28;19932;-69
2023/09/13 07:58:55;;;;;;;;;;;17.90;99.90;;;;;;8371663;28;20023;-70
2023/09/13 08:02:58;;;;;;;;;;;18.00;99.90;;;;;;8376358;28;19928;-70
2023/09/13 08:06:59;;;;;;;;;;;18.10;99.90;;;;;;8371087;28;19931;-70
2023/09/13 08:11:01;;;;;;;;;;;18.20;99.90;;;;;;8371786;28;19935;-69
2023/09/13 08:15:03;;;;;;;;;;;18.30;99.90;;;;;;8347618;28;19991;-69
2023/09/13 08:19:05;;;;;;;;;;;18.40;99.90;;;;;;8364868;28;20304;-70
2023/09/13 08:23:06;;;;;;;;;;;18.60;99.90;;;;;;8371843;28;19929;-69
2023/09/13 08:27:08;;;;;;;;;;;18.70;99.90;;;;;;8365884;28;19925;-70
2023/09/13 08:31:10;;;;;;;;;;;18.90;99.90;;;;;;8366926;28;19925;-69
2023/09/13 08:35:12;;;;;;;;;;;19.00;99.90;;;;;;8371230;28;19937;-69
2023/09/13 08:39:13;;;;;;;;;;;19.10;99.90;;;;;;8354300;28;19925;-69
2023/09/13 08:53:24;;;;;;;;;;;19.30;99.90;;;;;;8369941;28;19936;-69
2023/09/13 08:57:26;;;;;;;;;;;19.40;99.90;;;;;;8359337;28;19925;-69
2023/09/13 09:01:28;;;;;;;;;;;19.40;99.90;;;;;;8377783;28;20383;-70
2023/09/13 09:05:30;;;;;;;;;;;19.50;99.90;;;;;;8370743;28;19925;-70
2023/09/13 09:09:32;;;;;;;;;;;19.50;99.90;;;;;;8367445;28;19925;-70
2023/09/13 09:13:36;;;;;;;;;;;19.60;99.90;;;;;;8370598;28;19975;-70
2023/09/13 09:17:39;;;;;;;;;;;19.50;99.90;;;;;;8373975;28;19939;-70
2023/09/13 09:21:41;;;;;;;;;;;19.50;99.90;;;;;;8368964;28;19933;-70
2023/09/13 09:25:44;;;;;;;;;;;19.60;99.90;;;;;;8369989;28;20446;-70
2023/09/13 09:29:46;;;;;;;;;;;19.70;99.90;;;;;;8366878;28;19932;-70
2023/09/13 09:33:48;;;;;;;;;;;19.80;99.90;;;;;;8373329;28;20352;-70
2023/09/13 09:37:50;;;;;;;;;;;20.00;99.90;;;;;;8375341;28;19925;-70
2023/09/13 09:46:55;;;;;;;;;;;20.20;99.90;;;;;;8375815;28;19924;-70
2023/09/13 09:50:57;;;;;;;;;;;20.30;99.90;;;;;;8372243;28;20367;-70
2023/09/13 09:54:59;;;;;;;;;;;20.20;99.90;;;;;;8362976;28;20374;-70
2023/09/13 09:59:01;;;;;;;;;;;20.10;99.90;;;;;;8374104;28;19976;-70
2023/09/13 10:03:03;;;;;;;;;;;20.10;99.90;;;;;;8366949;28;19932;-70
2023/09/13 10:07:05;;;;;;;;;;;20.20;99.90;;;;;;8369481;28;19925;-70
2023/09/13 10:11:07;;;;;;;;;;;20.20;99.90;;;;;;8366096;28;19924;-70
2023/09/13 10:15:09;;;;;;;;;;;20.10;99.90;;;;;;8377011;28;19924;-70
2023/09/13 10:34:23;;;;;;;;;;;20.10;99.90;;;;;;8377872;28;20378;-70
2023/09/13 10:38:36;;;;;;;;;;;20.10;99.90;;;;;;8375624;28;20437;-71
2023/09/13 10:42:40;;;;;;;;;;;20.10;99.90;;;;;;8366716;28;19963;-71
2023/09/13 10:46:42;;;;;;;;;;;20.20;99.90;;;;;;8367894;28;19929;-70
2023/09/13 10:50:44;;;;;;;;;;;20.10;99.90;;;;;;8364292;28;19928;-70
2023/09/13 10:54:46;;;;;;;;;;;20.10;99.90;;;;;;8375533;28;19986;-70
2023/09/13 10:58:49;;;;;;;;;;;20.20;99.90;;;;;;8375912;28;19939;-70
2023/09/13 11:02:52;;;;;;;;;;;20.30;99.90;;;;;;8376231;28;20294;-71
2023/09/13 11:06:53;;;;;;;;;;;20.40;99.90;;;;;;8364748;28;19925;-71
2023/09/13 11:10:55;;;;;;;;;;;20.30;99.90;;;;;;8377229;28;19925;-71
2023/09/13 11:15:10;;;;;;;;;;;20.40;99.90;;;;;;8378313;28;19924;-70
2023/09/13 11:19:12;;;;;;;;;;;20.50;99.90;;;;;;8382216;28;19925;-70
2023/09/13 11:23:18;;;;;;;;;;;20.50;99.90;;;;;;8374306;28;20322;-71
2023/09/13 11:27:24;;;;;;;;;;;20.40;99.90;;;;;;8386729;28;19947;-70
2023/09/13 11:31:26;;;;;;;;;;;20.20;99.90;;;;;;8384325;28;19925;-71
2023/09/13 11:35:27;;;;;;;;;;;19.90;99.90;;;;;;8377173;28;19929;-70
2023/09/13 11:39:29;;;;;;;;;;;19.70;99.90;;;;;;8378506;28;19936;-70
2023/09/13 11:43:35;;;;;;;;;;;19.60;99.90;;;;;;8370908;28;19925;-70
2023/09/13 11:47:36;;;;;;;;;;;19.40;99.90;;;;;;8366318;28;19936;-70
2023/09/13 11:51:44;;;;;;;;;;;19.40;99.90;;;;;;8349819;28;19932;-70
2023/09/13 11:55:53;;;;;;;;;;;19.40;99.90;;;;;;8373690;28;19960;-69
2023/09/13 12:00:14;;;;;;;;;;;19.50;99.90;;;;;;8380319;28;19932;-70
2023/09/13 12:04:15;;;;;;;;;;;19.50;99.90;;;;;;8377154;28;19932;-69
2023/09/13 12:08:21;;;;;;;;;;;19.40;99.90;;;;;;8370250;28;20309;-70
2023/09/13 12:12:26;;;;;;;;;;;19.40;99.90;;;;;;8373411;28;20391;-70
2023/09/13 12:16:42;;;;;;;;;;;19.50;99.90;;;;;;8377661;28;19994;-70
2023/09/13 12:20:44;;;;;;;;;;;19.60;99.90;;;;;;8362353;28;19964;-70
2023/09/13 12:24:51;;;;;;;;;;;19.70;99.90;;;;;;8369686;28;19925;-70
2023/09/13 12:28:53;;;;;;;;;;;19.80;99.90;;;;;;8371857;28;20023;-70
2023/09/13 12:32:55;;;;;;;;;;;19.90;99.90;;;;;;8371379;28;19970;-70
2023/09/13 12:36:57;;;;;;;;;;;20.00;99.90;;;;;;8362545;28;19987;-71
2023/09/13 12:40:59;;;;;;;;;;;20.10;99.90;;;;;;8373842;28;19924;-70
2023/09/13 12:45:01;;;;;;;;;;;20.10;99.90;;;;;;8376163;28;19947;-70
2023/09/13 12:49:07;;;;;;;;;;;20.20;99.90;;;;;;8371249;28;20264;-70
2023/09/13 12:53:09;;;;;;;;;;;20.20;99.90;;;;;;8366044;28;19928;-71
2023/09/13 12:57:10;;;;;;;;;;;20.30;99.90;;;;;;8369434;28;19963;-71
2023/09/13 13:01:12;;;;;;;;;;;20.40;99.90;;;;;;8375374;28;20359;-70
2023/09/13 13:05:14;;;;;;;;;;;20.40;99.90;;;;;;8366175;28;19935;-70
2023/09/13 13:14:31;;;;;;;;;;;20.40;99.90;;;;;;8323144;28;19937;-70
2023/09/13 13:18:33;;;;;;;;;;;20.40;99.90;;;;;;8322994;28;20399;-70
2023/09/13 13:22:46;;;;;;;;;;;20.60;99.90;;;;;;8325540;28;20280;-70
2023/09/13 13:26:48;;;;;;;;;;;20.60;99.90;;;;;;8323223;28;19931;-70
2023/09/13 13:30:52;;;;;;;;;;;20.70;99.90;;;;;;8328975;28;19925;-70
2023/09/13 13:34:54;;;;;;;;;;;20.60;99.90;;;;;;8336123;28;19979;-70
2023/09/13 13:38:59;;;;;;;;;;;20.70;99.90;;;;;;8332559;28;19933;-70
2023/09/13 13:43:01;;;;;;;;;;;20.80;99.90;;;;;;8334455;28;19925;-70
2023/09/13 13:47:03;;;;;;;;;;;20.80;99.90;;;;;;8332775;28;19960;-71
2023/09/13 13:51:05;;;;;;;;;;;20.90;99.90;;;;;;8334248;28;19925;-70
2023/09/13 13:55:07;;;;;;;;;;;20.90;99.90;;;;;;8332682;28;19979;-71
2023/09/13 13:59:10;;;;;;;;;;;21.00;99.90;;;;;;8330463;28;19929;-70
2023/09/13 14:03:12;;;;;;;;;;;21.10;99.90;;;;;;8345611;28;19929;-70
2023/09/13 14:07:14;;;;;;;;;;;21.30;99.90;;;;;;8328822;28;20349;-70
2023/09/13 14:11:15;;;;;;;;;;;21.40;99.90;;;;;;8338163;28;19924;-70
2023/09/13 14:15:20;;;;;;;;;;;21.40;99.90;;;;;;8382284;28;20753;-70
2023/09/13 14:19:23;;;;;;;;;;;21.40;99.90;;;;;;8371084;28;22295;-70
2023/09/13 14:23:25;;;;;;;;;;;21.50;99.90;;;;;;8380079;28;19931;-70
2023/09/13 14:27:27;;;;;;;;;;;21.50;99.90;;;;;;8387245;28;19925;-70
2023/09/13 14:31:36;;;;;;;;;;;21.50;99.90;;;;;;8380567;28;19925;-70
2023/09/13 14:35:38;;;;;;;;;;;21.50;99.90;;;;;;8385044;28;20104;-70
2023/09/13 14:39:40;;;;;;;;;;;21.50;99.90;;;;;;8379892;28;19925;-70
2023/09/13 14:43:41;;;;;;;;;;;21.50;99.90;;;;;;8374938;28;19924;-70
2023/09/13 14:47:43;;;;;;;;;;;21.50;99.90;;;;;;8373943;28;20007;-70
2023/09/13 14:51:47;;;;;;;;;;;21.50;99.90;;;;;;8380303;28;19947;-70
2023/09/13 14:55:56;;;;;;;;;;;21.50;99.90;;;;;;8372210;28;19924;-70
2023/09/13 14:59:58;;;;;;;;;;;21.50;99.90;;;;;;8375198;28;20420;-70
2023/09/13 15:03:59;;;;;;;;;;;21.50;99.90;;;;;;8381583;28;19951;-70
2023/09/13 15:08:01;;;;;;;;;;;21.50;99.90;;;;;;8373666;28;20311;-70
2023/09/13 15:12:03;;;;;;;;;;;21.40;99.90;;;;;;8379130;28;20383;-70
2023/09/13 15:16:05;;;;;;;;;;;21.30;99.90;;;;;;8378797;28;19924;-70
2023/09/13 15:20:07;;;;;;;;;;;21.30;99.90;;;;;;8367520;28;19925;-71
2023/09/13 15:24:08;;;;;;;;;;;21.20;99.90;;;;;;8366930;28;19925;-70
2023/09/13 15:28:10;;;;;;;;;;;21.20;99.90;;;;;;8385172;28;19970;-70
2023/09/13 15:32:12;;;;;;;;;;;21.10;99.90;;;;;;8377597;28;19925;-70
2023/09/13 15:36:14;;;;;;;;;;;21.00;99.90;;;;;;8370722;28;19928;-70
2023/09/13 15:40:15;;;;;;;;;;;21.00;99.90;;;;;;8379439;28;20011;-70
2023/09/13 15:44:17;;;;;;;;;;;21.00;99.90;;;;;;8374655;28;19971;-71
2023/09/13 15:48:19;;;;;;;;;;;21.10;99.90;;;;;;8369711;28;19924;-70
2023/09/13 15:52:21;;;;;;;;;;;21.10;99.90;;;;;;8378729;28;19947;-70
2023/09/13 15:56:22;;;;;;;;;;;21.10;99.90;;;;;;8370498;28;19988;-70
2023/09/13 16:00:24;;;;;;;;;;;21.20;99.90;;;;;;8377300;28;19932;-70
2023/09/13 16:04:26;;;;;;;;;;;21.20;99.90;;;;;;8377494;28;19971;-71
2023/09/13 16:08:27;;;;;;;;;;;21.20;99.90;;;;;;8381420;28;20521;-70
2023/09/13 16:12:29;;;;;;;;;;;21.10;99.90;;;;;;8371594;28;19925;-70
2023/09/13 16:16:31;;;;;;;;;;;21.10;99.90;;;;;;8371803;28;20015;-70
2023/09/13 16:20:33;;;;;;;;;;;21.20;99.90;;;;;;8375499;28;19925;-71
2023/09/13 16:29:40;;;;;;;;;;;21.40;99.90;;;;;;8377701;28;19928;-70
2023/09/13 16:33:41;;;;;;;;;;;21.40;99.90;;;;;;8369990;28;19936;-70
2023/09/13 16:37:43;;;;;;;;;;;21.40;99.90;;;;;;8370434;28;19986;-70
2023/09/13 16:41:45;;;;;;;;;;;21.40;99.90;;;;;;8369846;28;19928;-71
2023/09/13 16:45:46;;;;;;;;;;;21.30;99.90;;;;;;8367169;28;19924;-71
2023/09/13 16:49:48;;;;;;;;;;;21.20;99.90;;;;;;8361346;28;19940;-70
2023/09/13 16:53:50;;;;;;;;;;;21.10;99.90;;;;;;8373747;28;19975;-70
2023/09/13 16:57:51;;;;;;;;;;;21.10;99.90;;;;;;8381788;28;20165;-71
2023/09/13 17:01:53;;;;;;;;;;;21.20;99.90;;;;;;8366255;28;19924;-70
2023/09/13 17:05:55;;;;;;;;;;;21.10;99.90;;;;;;8376590;28;19924;-70
2023/09/13 17:09:57;;;;;;;;;;;21.00;99.90;;;;;;8375279;28;19932;-70
2023/09/13 17:19:10;;;;;;;;;;;21.00;99.90;;;;;;8381289;28;19919;-70
2023/09/13 17:23:12;;;;;;;;;;;21.20;99.90;;;;;;8367238;28;20015;-70
2023/09/13 17:27:14;;;;;;;;;;;21.20;99.90;;;;;;8382088;28;19928;-71
2023/09/13 17:36:19;;;;;;;;;;;21.00;99.90;;;;;;8371248;28;19967;-71
2023/09/13 17:40:36;;;;;;;;;;;20.80;99.90;;;;;;8369656;28;19933;-70
2023/09/13 17:44:38;;;;;;;;;;;20.60;99.90;;;;;;8373939;28;20448;-71
2023/09/13 17:48:40;;;;;;;;;;;20.40;99.90;;;;;;8358218;28;20283;-72
2023/09/13 17:52:41;;;;;;;;;;;20.20;99.90;;;;;;8375676;28;20418;-72
2023/09/13 17:56:43;;;;;;;;;;;20.00;99.90;;;;;;8372402;28;19929;-72
2023/09/13 18:00:45;;;;;;;;;;;19.90;99.90;;;;;;8369401;28;20376;-72
2023/09/13 18:09:54;;;;;;;;;;;19.60;99.90;;;;;;8370476;28;19924;-72
2023/09/13 18:13:56;;;;;;;;;;;19.60;99.90;;;;;;8375082;28;19928;-72
2023/09/13 18:17:57;;;;;;;;;;;19.50;99.90;;;;;;8366272;28;19940;-72
2023/09/13 18:21:59;;;;;;;;;;;19.40;99.90;;;;;;8375585;28;20422;-71
2023/09/13 18:26:04;;;;;;;;;;;19.30;99.90;;;;;;8370659;28;19925;-71
2023/09/13 18:30:08;;;;;;;;;;;19.20;99.90;;;;;;8371794;28;19970;-71
2023/09/13 18:34:10;;;;;;;;;;;19.20;99.90;;;;;;8379512;28;19931;-71
2023/09/13 18:38:11;;;;;;;;;;;19.10;99.90;;;;;;8379361;28;19925;-71
2023/09/13 18:42:13;;;;;;;;;;;19.10;99.90;;;;;;8379185;28;20279;-72
2023/09/13 18:46:15;;;;;;;;;;;19.00;99.90;;;;;;8382380;28;19935;-71
2023/09/13 18:50:16;;;;;;;;;;;19.00;99.90;;;;;;8376138;28;19936;-72
2023/09/13 18:59:27;;;;;;;;;;;18.80;99.90;;;;;;8376477;28;19977;-72
2023/09/13 19:03:29;;;;;;;;;;;18.70;99.90;;;;;;8376386;28;20433;-72
2023/09/13 19:07:32;;;;;;;;;;;18.60;99.90;;;;;;8367456;28;20023;-72
2023/09/13 19:11:35;;;;;;;;;;;18.70;99.90;;;;;;8377663;28;20342;-72
2023/09/13 19:15:37;;;;;;;;;;;18.60;99.90;;;;;;8373156;28;20122;-72
2023/09/13 19:19:38;;;;;;;;;;;18.50;99.90;;;;;;8359426;28;19924;-72
2023/09/13 19:23:43;;;;;;;;;;;18.40;99.90;;;;;;8351003;28;19933;-72
2023/09/13 19:27:45;;;;;;;;;;;18.30;99.90;;;;;;8377465;28;19970;-72
2023/09/13 19:31:46;;;;;;;;;;;18.30;99.90;;;;;;8371913;28;19925;-72
2023/09/13 19:35:48;;;;;;;;;;;18.20;99.90;;;;;;8363821;28;19932;-72
2023/09/13 19:39:50;;;;;;;;;;;18.10;99.90;;;;;;8370118;28;20304;-72
2023/09/13 19:43:51;;;;;;;;;;;18.00;99.90;;;;;;8376889;28;19928;-72
2023/09/13 19:47:53;;;;;;;;;;;18.00;99.90;;;;;;8371120;28;19929;-71
2023/09/13 19:51:55;;;;;;;;;;;18.00;99.90;;;;;;8380074;28;19956;-71
2023/09/13 19:55:57;;;;;;;;;;;17.90;99.90;;;;;;8370210;28;19968;-71
2023/09/13 19:59:58;;;;;;;;;;;17.90;99.90;;;;;;8376294;28;19932;-72
2023/09/13 20:04:01;;;;;;;;;;;17.80;99.90;;;;;;8377003;28;19939;-72
2023/09/13 20:08:03;;;;;;;;;;;17.80;99.90;;;;;;8369859;28;19925;-72
2023/09/13 20:12:05;;;;;;;;;;;17.70;99.90;;;;;;8361724;28;20323;-72
2023/09/13 20:16:07;;;;;;;;;;;17.60;99.90;;;;;;8375687;28;20334;-72
2023/09/13 20:20:09;;;;;;;;;;;17.50;99.90;;;;;;8356479;28;19932;-72
2023/09/13 20:24:10;;;;;;;;;;;17.50;99.90;;;;;;8379147;28;19932;-72
2023/09/13 20:28:12;;;;;;;;;;;17.40;99.90;;;;;;8369523;28;19925;-72
2023/09/13 20:32:13;;;;;;;;;;;17.30;99.90;;;;;;8369735;28;19925;-72
2023/09/13 20:36:15;;;;;;;;;;;17.30;99.90;;;;;;8360106;28;19932;-72
2023/09/13 20:40:17;;;;;;;;;;;17.20;99.90;;;;;;8373979;28;19925;-72
2023/09/13 20:44:18;;;;;;;;;;;17.10;99.90;;;;;;8373726;28;20248;-72
2023/09/13 20:48:20;;;;;;;;;;;17.00;99.90;;;;;;8373662;28;19933;-71
2023/09/13 20:52:22;;;;;;;;;;;17.00;99.90;;;;;;8377141;28;19925;-72
2023/09/13 20:56:23;;;;;;;;;;;16.90;99.90;;;;;;8377149;28;19970;-72
2023/09/13 21:00:25;;;;;;;;;;;16.80;99.90;;;;;;8376515;28;19925;-72
2023/09/13 21:04:27;;;;;;;;;;;16.80;99.90;;;;;;8366477;28;19931;-71
2023/09/13 21:08:29;;;;;;;;;;;16.70;99.90;;;;;;8372708;28;19931;-71
2023/09/13 21:12:30;;;;;;;;;;;16.60;99.90;;;;;;8370008;28;19979;-71
2023/09/13 21:16:32;;;;;;;;;;;16.60;99.90;;;;;;8367526;28;19978;-71
2023/09/13 21:20:34;;;;;;;;;;;16.60;99.90;;;;;;8369406;28;20285;-71
2023/09/13 21:24:35;;;;;;;;;;;16.40;99.90;;;;;;8361750;28;19931;-71
2023/09/13 21:28:38;;;;;;;;;;;16.40;99.90;;;;;;8370600;28;19924;-71
2023/09/13 21:32:40;;;;;;;;;;;16.30;99.90;;;;;;8379702;28;19925;-71
2023/09/13 21:36:42;;;;;;;;;;;16.40;99.90;;;;;;8364845;28;20501;-71
2023/09/13 21:40:43;;;;;;;;;;;16.30;99.90;;;;;;8373019;28;20337;-71
2023/09/13 21:44:45;;;;;;;;;;;16.40;99.90;;;;;;8366487;28;19929;-72
2023/09/13 21:48:47;;;;;;;;;;;16.40;99.90;;;;;;8370222;28;20440;-71
2023/09/13 21:52:49;;;;;;;;;;;16.40;99.90;;;;;;8363906;28;19932;-71
2023/09/13 21:56:50;;;;;;;;;;;16.40;99.90;;;;;;8381787;28;19929;-71
2023/09/13 22:00:56;;;;;;;;;;;16.50;99.90;;;;;;8381372;28;19925;-71
2023/09/13 22:04:58;;;;;;;;;;;16.40;99.90;;;;;;8378777;28;19978;-71
2023/09/13 22:09:03;;;;;;;;;;;16.40;99.90;;;;;;8370763;28;19935;-71
2023/09/13 22:13:04;;;;;;;;;;;16.40;99.90;;;;;;8368243;28;20362;-71
2023/09/13 22:17:06;;;;;;;;;;;16.40;99.90;;;;;;8386695;28;19931;-71
2023/09/13 22:21:08;;;;;;;;;;;16.40;99.90;;;;;;8366050;28;19925;-71
2023/09/13 22:25:10;;;;;;;;;;;16.40;99.90;;;;;;8380447;28;19939;-72
2023/09/13 22:29:11;;;;;;;;;;;16.40;99.90;;;;;;8378540;28;20382;-71
2023/09/13 22:33:14;;;;;;;;;;;16.40;99.90;;;;;;8376706;28;19970;-71
2023/09/13 22:37:15;;;;;;;;;;;16.30;99.90;;;;;;8381170;28;19924;-71
2023/09/13 22:41:17;;;;;;;;;;;16.30;99.90;;;;;;8361563;28;19932;-71
2023/09/13 22:45:19;;;;;;;;;;;16.30;99.90;;;;;;8374460;28;19925;-71
2023/09/13 22:49:26;;;;;;;;;;;16.30;99.90;;;;;;8377319;28;19936;-71
2023/09/13 22:53:28;;;;;;;;;;;16.30;99.90;;;;;;8377348;28;20380;-71
2023/09/13 22:57:30;;;;;;;;;;;16.20;99.90;;;;;;8370625;28;19929;-71
2023/09/13 23:01:34;;;;;;;;;;;16.20;99.90;;;;;;8370508;28;19929;-71
2023/09/13 23:05:38;;;;;;;;;;;16.10;99.90;;;;;;8381297;28;19929;-71
2023/09/13 23:09:41;;;;;;;;;;;16.10;99.90;;;;;;8390109;28;20401;-71
2023/09/13 23:13:48;;;;;;;;;;;16.10;99.90;;;;;;8384691;28;19951;-71
2023/09/13 23:17:50;;;;;;;;;;;16.10;99.90;;;;;;8374715;28;19924;-71
2023/09/13 23:21:52;;;;;;;;;;;16.10;99.90;;;;;;8381395;28;19979;-71
2023/09/13 23:26:01;;;;;;;;;;;16.10;99.90;;;;;;8350694;28;19929;-71
2023/09/13 23:30:03;;;;;;;;;;;16.00;99.90;;;;;;8383029;28;19932;-71
2023/09/13 23:39:08;;;;;;;;;;;16.00;99.90;;;;;;8383370;28;19973;-71
2023/09/13 23:43:10;;;;;;;;;;;16.00;99.90;;;;;;8370090;28;19924;-71
2023/09/13 23:47:11;;;;;;;;;;;16.00;99.90;;;;;;8383374;28;19947;-71
2023/09/13 23:51:15;;;;;;;;;;;16.00;99.90;;;;;;8357108;28;19924;-71
2023/09/13 23:55:17;;;;;;;;;;;16.00;99.90;;;;;;8376270;28;19929;-71
2023/09/13 23:59:20;;;;;;;;;;;15.90;99.90;;;;;;8369910;28;19924;-71
